^^
Grace C. Lehan Memorial Weather Station Historical Data
Daily Summary for September 30, 2022 Units:  English    Metric   Both
Daily Weekly Monthly Yearly
  High: Low: Average:
Temperature: 62.9 °F 45.2 °F 54.3 °F
Dew Point: 53 °F 41.1 °F 47.6 °F
Humidity: 88% 67% 79%
Wind Speed: 2mph 0mph 0.2mph
Wind Gust: 10mph - -
Wind- - SE
Pressure: 30.35 in 30.16 in -
Precipitation: 0.00 in    
 
 
Tabular Data for September 30, 2022
Time Temperature Dew Point Pressure Wind Wind Speed Wind Gust Humidity Rainfall Rate (Hourly) solar
00:04 51.5 °F 44.9 °F 30.34 in Calm     78% 0.00 in 0 W/m2
00:09 51.4 °F 45 °F 30.34 in Calm     78.5% 0.00 in 0 W/m2
00:14 51.3 °F 45 °F 30.34 in Calm     79% 0.00 in 0 W/m2
00:19 51.2 °F 44.9 °F 30.34 in Calm     79% 0.00 in 0 W/m2
00:24 51 °F 44.8 °F 30.34 in Calm     79.1% 0.00 in 0 W/m2
00:29 50.9 °F 45 °F 30.34 in Calm     80% 0.00 in 0 W/m2
00:34 50.8 °F 44.8 °F 30.34 in Calm     80% 0.00 in 0 W/m2
00:39 50.6 °F 44.7 °F 30.34 in Calm     80% 0.00 in 0 W/m2
00:44 50.5 °F 44.9 °F 30.34 in Calm     80.8% 0.00 in 0 W/m2
00:49 50.4 °F 44.8 °F 30.34 in Calm     81% 0.00 in 0 W/m2
00:54 50.4 °F 44.8 °F 30.34 in Calm     81% 0.00 in 0 W/m2
00:59 50.3 °F 44.7 °F 30.34 in Calm     81% 0.00 in 0 W/m2
01:04 50.2 °F 44.6 °F 30.34 in Calm   1 mph 81.1% 0.00 in 0 W/m2
01:09 50.1 °F 44.8 °F 30.34 in Calm   1 mph 82% 0.00 in 0 W/m2
01:14 50 °F 44.8 °F 30.34 in Calm   1 mph 82% 0.00 in 0 W/m2
01:19 49.9 °F 44.7 °F 30.34 in NNW 0.1 mph 2 mph 82% 0.00 in 0 W/m2
01:24 49.9 °F 44.6 °F 30.34 in NNW 0.5 mph 5 mph 82% 0.00 in 0 W/m2
01:29 49.8 °F 44.5 °F 30.34 in Calm   5 mph 82% 0.00 in 0 W/m2
01:34 49.7 °F 44.4 °F 30.34 in Calm   5 mph 82% 0.00 in 0 W/m2
01:39 49.7 °F 44.4 °F 30.34 in Calm   1 mph 82% 0.00 in 0 W/m2
01:44 49.6 °F 44.3 °F 30.34 in Calm   1 mph 82% 0.00 in 0 W/m2
01:49 49.5 °F 44.3 °F 30.34 in Calm   1 mph 82% 0.00 in 0 W/m2
01:54 49.5 °F 44.2 °F 30.34 in Calm   1 mph 82% 0.00 in 0 W/m2
01:59 49.4 °F 44.1 °F 30.34 in NW 0.1 mph 2 mph 82% 0.00 in 0 W/m2
02:04 49.4 °F 44.1 °F 30.34 in Calm   2 mph 82% 0.00 in 0 W/m2
02:09 49.3 °F 44.1 °F 30.34 in NW 0.1 mph 2 mph 82% 0.00 in 0 W/m2
02:14 49.3 °F 44 °F 30.34 in Calm   2 mph 82% 0.00 in 0 W/m2
02:19 49.2 °F 44 °F 30.34 in Calm   2 mph 82% 0.00 in 0 W/m2
02:24 49.1 °F 43.9 °F 30.34 in Calm   2 mph 82% 0.00 in 0 W/m2
02:29 49 °F 43.8 °F 30.34 in Calm   2 mph 82% 0.00 in 0 W/m2
02:34 48.9 °F 43.7 °F 30.34 in Calm   2 mph 82% 0.00 in 0 W/m2
02:39 48.8 °F 43.6 °F 30.34 in Calm     82% 0.00 in 0 W/m2
02:44 48.7 °F 43.5 °F 30.34 in Calm     82% 0.00 in 0 W/m2
02:49 48.6 °F 43.4 °F 30.33 in Calm     82% 0.00 in 0 W/m2
02:54 48.5 °F 43.2 °F 30.33 in Calm     82% 0.00 in 0 W/m2
02:59 48.3 °F 43.4 °F 30.33 in Calm     82.8% 0.00 in 0 W/m2
03:04 48.2 °F 43.5 °F 30.33 in Calm     83.5% 0.00 in 0 W/m2
03:09 48.1 °F 43.2 °F 30.33 in Calm     83% 0.00 in 0 W/m2
03:14 48 °F 43.1 °F 30.33 in Calm     83.1% 0.00 in 0 W/m2
03:19 47.9 °F 43.3 °F 30.33 in Calm     84% 0.00 in 0 W/m2
03:24 47.8 °F 43.2 °F 30.33 in Calm     84% 0.00 in 0 W/m2
03:29 47.8 °F 43 °F 30.32 in Calm   1 mph 83.6% 0.00 in 0 W/m2
03:34 47.7 °F 42.8 °F 30.32 in NNW 0.5 mph 4 mph 83% 0.00 in 0 W/m2
03:39 47.6 °F 42.7 °F 30.32 in NNW 0.2 mph 4 mph 83% 0.00 in 0 W/m2
03:44 47.6 °F 42.7 °F 30.32 in NNW 0.1 mph 4 mph 83.1% 0.00 in 0 W/m2
03:49 47.5 °F 43 °F 30.32 in NNW 0.2 mph 4 mph 84% 0.00 in 0 W/m2
03:54 47.5 °F 42.9 °F 30.32 in Calm   4 mph 84% 0.00 in 0 W/m2
03:59 47.4 °F 42.8 °F 30.32 in Calm   4 mph 84% 0.00 in 0 W/m2
04:09 47.3 °F 42.7 °F 30.33 in NNW 0.1 mph 2 mph 84% 0.00 in 0 W/m2
04:14 47.3 °F 42.7 °F 30.33 in NNW 0.1 mph 3 mph 84% 0.00 in 0 W/m2
04:19 47.2 °F 42.6 °F 30.33 in Calm   3 mph 84% 0.00 in 0 W/m2
04:24 47.1 °F 42.5 °F 30.33 in NNW 0.1 mph 3 mph 84% 0.00 in 0 W/m2
04:29 47 °F 42.4 °F 30.33 in Calm   3 mph 84% 0.00 in 0 W/m2
04:34 46.9 °F 42.4 °F 30.33 in Calm   3 mph 84% 0.00 in 0 W/m2
04:39 46.9 °F 42.3 °F 30.32 in NNW 0.3 mph 3 mph 84% 0.00 in 0 W/m2
04:44 46.8 °F 42.2 °F 30.32 in NNW 0.2 mph 5 mph 84% 0.00 in 0 W/m2
04:49 46.7 °F 42.1 °F 30.32 in NNW 0.1 mph 5 mph 84% 0.00 in 0 W/m2
04:54 46.7 °F 42.1 °F 30.32 in NNW 0.3 mph 5 mph 84% 0.00 in 0 W/m2
04:59 46.6 °F 42 °F 30.33 in NNW 0.5 mph 5 mph 84% 0.00 in 0 W/m2
05:04 46.5 °F 42 °F 30.33 in Calm   5 mph 84% 0.00 in 0 W/m2
05:09 46.6 °F 42 °F 30.33 in NNW 0.3 mph 5 mph 84% 0.00 in 0 W/m2
05:14 46.5 °F 41.9 °F 30.33 in NE 0.2 mph 5 mph 83.8% 0.00 in 0 W/m2
05:19 46.5 °F 41.6 °F 30.33 in NNE 0.1 mph 5 mph 83% 0.00 in 0 W/m2
05:24 46.5 °F 41.6 °F 30.33 in NNW 0.6 mph 10 mph 83% 0.00 in 0 W/m2
05:29 46.5 °F 41.6 °F 30.33 in Calm   10 mph 83% 0.00 in 0 W/m2
05:34 46.5 °F 41.6 °F 30.34 in Calm   10 mph 83% 0.00 in 0 W/m2
05:39 46.4 °F 41.5 °F 30.34 in NE 0.2 mph 3 mph 83% 0.00 in 0 W/m2
05:44 46.4 °F 41.5 °F 30.34 in North 0.1 mph 3 mph 83% 0.00 in 0 W/m2
05:49 46.4 °F 41.6 °F 30.34 in Calm   3 mph 83.2% 0.00 in 0 W/m2
05:54 46.4 °F 41.5 °F 30.34 in Calm   3 mph 83.2% 0.00 in 0 W/m2
05:59 46.3 °F 41.5 °F 30.34 in Calm   3 mph 83.2% 0.00 in 0 W/m2
06:04 46.2 °F 41.4 °F 30.33 in Calm   3 mph 83% 0.00 in 0 W/m2
06:09 46.1 °F 41.3 °F 30.34 in Calm   1 mph 83% 0.00 in 0 W/m2
06:14 46 °F 41.2 °F 30.34 in Calm   1 mph 83% 0.00 in 0 W/m2
06:19 45.9 °F 41.2 °F 30.34 in Calm   1 mph 83.6% 0.00 in 0 W/m2
06:24 45.8 °F 41.3 °F 30.34 in North 0.3 mph 3 mph 84% 0.00 in 0 W/m2
06:29 45.7 °F 41.2 °F 30.34 in Calm   3 mph 84% 0.00 in 0 W/m2
06:34 45.6 °F 41.1 °F 30.34 in Calm   3 mph 84% 0.00 in 0 W/m2
06:39 45.6 °F 41.2 °F 30.34 in Calm     84.4% 0.00 in 0 W/m2
06:44 45.5 °F 41.3 °F 30.34 in Calm     85% 0.00 in 0 W/m2
06:49 45.4 °F 41.2 °F 30.34 in Calm     85% 0.00 in 0 W/m2
06:54 45.3 °F 41.1 °F 30.34 in Calm     85% 0.00 in 5 W/m2
06:59 45.3 °F 41.2 °F 30.34 in Calm     85.5% 0.00 in 9 W/m2
07:04 45.2 °F 41.3 °F 30.35 in Calm     86% 0.00 in 14 W/m2
07:09 45.2 °F 41.3 °F 30.35 in North 0.1 mph 2 mph 86% 0.00 in 19 W/m2
07:14 45.2 °F 41.3 °F 30.35 in Calm   2 mph 86% 0.00 in 26 W/m2
07:19 45.3 °F 41.4 °F 30.34 in Calm   2 mph 86% 0.00 in 32 W/m2
07:24 45.3 °F 41.4 °F 30.35 in North 0.1 mph 2 mph 86% 0.00 in 39 W/m2
07:29 45.4 °F 41.5 °F 30.35 in Calm   2 mph 86% 0.00 in 46 W/m2
07:34 45.5 °F 41.5 °F 30.35 in Calm   2 mph 86% 0.00 in 53 W/m2
07:39 45.6 °F 41.6 °F 30.35 in NNE 0.3 mph 3 mph 86% 0.00 in 56 W/m2
07:44 45.7 °F 41.7 °F 30.35 in Calm   3 mph 86% 0.00 in 67 W/m2
07:49 45.8 °F 41.9 °F 30.35 in Calm   3 mph 86% 0.00 in 67 W/m2
07:54 46 °F 42 °F 30.35 in Calm   3 mph 86% 0.00 in 95 W/m2
07:59 46.2 °F 42.3 °F 30.35 in NNW 0.3 mph 6 mph 85.9% 0.00 in 88 W/m2
08:00 46.4 °F 42.1 °F 30.35 in Calm   6 mph 85% 0.00 in 88 W/m2
08:09 46.7 °F 42.4 °F 30.35 in NE 0.3 mph 3 mph 85% 0.00 in 91 W/m2
08:14 46.9 °F 42.6 °F 30.35 in NE 0.1 mph 3 mph 84.9% 0.00 in 98 W/m2
08:19 47.1 °F 42.5 °F 30.35 in NE 0.2 mph 3 mph 84% 0.00 in 100 W/m2
08:24 47.2 °F 42.6 °F 30.35 in North 0.1 mph 3 mph 84% 0.00 in 109 W/m2
08:29 47.4 °F 42.8 °F 30.35 in North 0.3 mph 3 mph 84% 0.00 in 114 W/m2
08:34 47.6 °F 42.8 °F 30.35 in ENE 0.1 mph 3 mph 83% 0.00 in 155 W/m2
08:39 48 °F 43.2 °F 30.35 in ENE 0.4 mph 5 mph 83.4% 0.00 in 192 W/m2
08:44 48.4 °F 43.4 °F 30.35 in North 0.5 mph 6 mph 82.8% 0.00 in 202 W/m2
08:49 48.8 °F 43.6 °F 30.35 in North 0.6 mph 6 mph 82% 0.00 in 169 W/m2
08:54 49.2 °F 43.6 °F 30.35 in ENE 0.4 mph 9 mph 81% 0.00 in 167 W/m2
08:59 49.4 °F 43.6 °F 30.35 in NE 0.8 mph 9 mph 80.2% 0.00 in 169 W/m2
09:04 49.7 °F 44.1 °F 30.35 in NE 0.7 mph 9 mph 80.9% 0.00 in 181 W/m2
09:09 50.1 °F 44.4 °F 30.35 in NE 0.2 mph 4 mph 80.8% 0.00 in 348 W/m2
09:14 50.7 °F 44.9 °F 30.35 in North 0.2 mph 4 mph 80.5% 0.00 in 429 W/m2
09:19 51.5 °F 45.6 °F 30.35 in NNW 0.2 mph 4 mph 80.2% 0.00 in 429 W/m2
09:24 52.2 °F 45.5 °F 30.35 in East 0.1 mph 4 mph 77.9% 0.00 in 339 W/m2
09:29 52.6 °F 45.7 °F 30.35 in NNW 0.6 mph 7 mph 77.3% 0.00 in 489 W/m2
09:34 53.2 °F 45.9 °F 30.35 in NW 0.4 mph 7 mph 76.2% 0.00 in 489 W/m2
09:39 53.5 °F 45.8 °F 30.34 in NW 0.6 mph 6 mph 75.2% 0.00 in 323 W/m2
09:44 53.4 °F 45.4 °F 30.34 in ENE 1.7 mph 7 mph 74.1% 0.00 in 330 W/m2
09:49 53.3 °F 45.4 °F 30.34 in NE 1 mph 8 mph 74.5% 0.00 in 508 W/m2
09:54 53.7 °F 46.1 °F 30.34 in NNE 0.4 mph 8 mph 75.4% 0.00 in 508 W/m2
09:59 54.2 °F 46.4 °F 30.34 in NNE 0.5 mph 8 mph 75% 0.00 in 526 W/m2
10:04 54.7 °F 46.5 °F 30.35 in NNE 0.2 mph 8 mph 73.8% 0.00 in 578 W/m2
10:09 55.3 °F 47.1 °F 30.34 in ENE 1 mph 6 mph 73.8% 0.00 in 568 W/m2
10:14 56 °F 47.6 °F 30.34 in NNE 0.5 mph 6 mph 73.4% 0.00 in 580 W/m2
10:19 56.8 °F 48.1 °F 30.34 in North 0.3 mph 6 mph 72.5% 0.00 in 584 W/m2
10:24 57.4 °F 48.3 °F 30.34 in North 0.4 mph 6 mph 71.5% 0.00 in 599 W/m2
10:29 58 °F 48.3 °F 30.34 in ENE 0.4 mph 6 mph 70% 0.00 in 594 W/m2
10:34 58.3 °F 48.7 °F 30.33 in North 0.7 mph 6 mph 70.2% 0.00 in 552 W/m2
10:39 58.6 °F 48.4 °F 30.33 in NE 1.1 mph 4 mph 68.7% 0.00 in 496 W/m2
10:44 58.1 °F 47.8 °F 30.33 in NNE 0.5 mph 5 mph 68.3% 0.00 in 424 W/m2
10:49 57.8 °F 48.2 °F 30.33 in NW 0.1 mph 5 mph 70.4% 0.00 in 538 W/m2
10:54 57.9 °F 48.6 °F 30.33 in NW 0.2 mph 5 mph 71.2% 0.00 in 468 W/m2
10:59 58.2 °F 48.9 °F 30.33 in NW 0.4 mph 5 mph 71.1% 0.00 in 415 W/m2
11:04 58.4 °F 48.7 °F 30.32 in NW 0.6 mph 5 mph 70.2% 0.00 in 399 W/m2
11:09 58.6 °F 49.2 °F 30.32 in North 0.6 mph 3 mph 71.1% 0.00 in 473 W/m2
11:14 58.8 °F 49 °F 30.32 in ENE 0.7 mph 3 mph 69.8% 0.00 in 529 W/m2
11:19 58.8 °F 49.1 °F 30.32 in ENE 1.4 mph 5 mph 70% 0.00 in 455 W/m2
11:24 58.8 °F 49.2 °F 30.32 in NNW 0.5 mph 5 mph 70.3% 0.00 in 410 W/m2
11:29 59.1 °F 49.9 °F 30.32 in Calm   5 mph 71.5% 0.00 in 383 W/m2
11:34 59.3 °F 50.1 °F 30.32 in NW 0.5 mph 7 mph 71.3% 0.00 in 348 W/m2
11:39 59.6 °F 49.9 °F 30.32 in Calm   7 mph 70.4% 0.00 in 309 W/m2
11:44 59.5 °F 49.7 °F 30.31 in NE 0.2 mph 7 mph 69.9% 0.00 in 276 W/m2
11:49 59.3 °F 49.7 °F 30.31 in NE 0.2 mph 7 mph 70.4% 0.00 in 260 W/m2
11:54 59.1 °F 49.5 °F 30.31 in NE 0.6 mph 7 mph 70.2% 0.00 in 276 W/m2
11:59 59 °F 49.5 °F 30.31 in ENE 0.6 mph 7 mph 70.7% 0.00 in 288 W/m2
12:00 58.9 °F 49.5 °F 30.31 in Calm   7 mph 71% 0.00 in 288 W/m2
12:09 58.9 °F 49.6 °F 30.31 in ENE 0.2 mph 2 mph 71% 0.00 in 316 W/m2
12:14 59.1 °F 50.2 °F 30.30 in NE 0.1 mph 2 mph 72.2% 0.00 in 352 W/m2
12:19 59.6 °F 51.4 °F 30.30 in NE 0.2 mph 4 mph 74.1% 0.00 in 355 W/m2
12:24 60.1 °F 51.1 °F 30.30 in NE 0.3 mph 4 mph 72.2% 0.00 in 376 W/m2
12:29 60.5 °F 51.5 °F 30.29 in NNW 0.8 mph 5 mph 72% 0.00 in 394 W/m2
12:34 61 °F 51.7 °F 30.29 in WNW 0.7 mph 5 mph 71.3% 0.00 in 397 W/m2
12:39 61.3 °F 51.4 °F 30.29 in NNW 0.8 mph 5 mph 70% 0.00 in 366 W/m2
12:44 61.6 °F 51.8 °F 30.29 in NW 0.5 mph 5 mph 70.4% 0.00 in 327 W/m2
12:49 61.8 °F 51.9 °F 30.29 in NNW 0.3 mph 5 mph 70% 0.00 in 325 W/m2
12:54 61.9 °F 51.8 °F 30.28 in NNE 0.3 mph 5 mph 69.5% 0.00 in 313 W/m2
12:59 61.9 °F 51.9 °F 30.28 in NE 0.4 mph 5 mph 69.7% 0.00 in 316 W/m2
13:04 61.7 °F 51.2 °F 30.27 in NE 0.3 mph 5 mph 68.5% 0.00 in 366 W/m2
13:09 61.6 °F 51.3 °F 30.27 in NNE 0.8 mph 4 mph 68.9% 0.00 in 353 W/m2
13:14 61.7 °F 51.5 °F 30.27 in NE 1 mph 6 mph 69.1% 0.00 in 315 W/m2
13:19 61.7 °F 51.1 °F 30.26 in ENE 1.1 mph 6 mph 68.2% 0.00 in 325 W/m2
13:24 61.6 °F 51.1 °F 30.26 in ENE 0.5 mph 6 mph 68.5% 0.00 in 325 W/m2
13:29 61.8 °F 51.6 °F 30.25 in NNE 0.7 mph 6 mph 69.3% 0.00 in 323 W/m2
13:34 61.9 °F 51.8 °F 30.25 in NNE 0.1 mph 6 mph 69.4% 0.00 in 336 W/m2
13:39 62 °F 51.5 °F 30.25 in NNW 1.1 mph 6 mph 68.3% 0.00 in 352 W/m2
13:44 62.2 °F 51.8 °F 30.25 in NW 0.5 mph 6 mph 68.7% 0.00 in 318 W/m2
13:49 62.3 °F 51.5 °F 30.25 in NNE 1 mph 6 mph 67.8% 0.00 in 294 W/m2
13:54 62.3 °F 51.6 °F 30.25 in NE 2 mph 6 mph 68% 0.00 in 250 W/m2
13:59 62.1 °F 51.3 °F 30.24 in NE 1.2 mph 9 mph 67.7% 0.00 in 250 W/m2
14:04 62 °F 51.6 °F 30.24 in NE 1.3 mph 9 mph 68.5% 0.00 in 227 W/m2
14:09 61.9 °F 51.6 °F 30.24 in North 0.5 mph 7 mph 68.9% 0.00 in 239 W/m2
14:14 61.8 °F 51.6 °F 30.24 in NE 1.1 mph 7 mph 69% 0.00 in 248 W/m2
14:19 61.8 °F 51.5 °F 30.24 in NE 0.4 mph 7 mph 68.8% 0.00 in 269 W/m2
14:24 61.8 °F 51.3 °F 30.24 in NE 1.7 mph 7 mph 68.3% 0.00 in 281 W/m2
14:29 61.8 °F 51.3 °F 30.24 in Calm   7 mph 68.3% 0.00 in 281 W/m2
14:34 61.9 °F 51.4 °F 30.24 in NE 0.3 mph 7 mph 68.5% 0.00 in 251 W/m2
14:39 62 °F 51.7 °F 30.23 in NE 0.4 mph 3 mph 68.9% 0.00 in 253 W/m2
14:44 62.1 °F 51.8 °F 30.23 in NNE 0.4 mph 3 mph 68.9% 0.00 in 246 W/m2
14:49 62.2 °F 51.8 °F 30.23 in NNE 0.1 mph 3 mph 68.6% 0.00 in 221 W/m2
14:54 62.4 °F 52.1 °F 30.24 in Calm   3 mph 69% 0.00 in 218 W/m2
14:59 62.4 °F 52.1 °F 30.23 in NE 0.6 mph 3 mph 69% 0.00 in 221 W/m2
15:04 62.5 °F 52 °F 30.24 in Calm   3 mph 68.5% 0.00 in 225 W/m2
15:09 62.5 °F 51.5 °F 30.23 in Calm   1 mph 67.3% 0.00 in 225 W/m2
15:14 62.5 °F 52.1 °F 30.23 in Calm   1 mph 68.6% 0.00 in 211 W/m2
15:19 62.6 °F 52.3 °F 30.23 in NE 0.1 mph 1 mph 69% 0.00 in 181 W/m2
15:24 62.7 °F 52.5 °F 30.23 in NNE 0.6 mph 3 mph 69.2% 0.00 in 192 W/m2
15:29 62.8 °F 52.5 °F 30.24 in Calm   3 mph 69.2% 0.00 in 193 W/m2
15:34 62.9 °F 52.7 °F 30.23 in Calm   3 mph 69.2% 0.00 in 185 W/m2
15:39 62.9 °F 52 °F 30.24 in NE 0.2 mph 2 mph 67.5% 0.00 in 181 W/m2
15:44 62.7 °F 51.6 °F 30.23 in Calm   2 mph 67% 0.00 in 174 W/m2
15:49 62.7 °F 52 °F 30.23 in NE 0.2 mph 2 mph 68.1% 0.00 in 153 W/m2
15:54 62.6 °F 52 °F 30.23 in Calm   2 mph 68.3% 0.00 in 139 W/m2
15:59 62.6 °F 52.2 °F 30.23 in NE 0.2 mph 2 mph 68.8% 0.00 in 132 W/m2
16:00 62.6 °F 52.3 °F 30.23 in Calm   2 mph 69% 0.00 in 123 W/m2
16:09 62.5 °F 52.2 °F 30.23 in Calm     68.9% 0.00 in 113 W/m2
16:14 62.5 °F 52.6 °F 30.23 in Calm   1 mph 70.1% 0.00 in 123 W/m2
16:19 62.4 °F 52.2 °F 30.22 in NNE 0.3 mph 4 mph 69.3% 0.00 in 121 W/m2
16:24 62.4 °F 52.3 °F 30.22 in Calm   4 mph 69.6% 0.00 in 121 W/m2
16:29 62.4 °F 52.5 °F 30.22 in NNE 0.5 mph 4 mph 69.9% 0.00 in 116 W/m2
16:34 62.3 °F 52.4 °F 30.22 in NNE 0.5 mph 4 mph 70% 0.00 in 111 W/m2
16:39 62.3 °F 52.5 °F 30.22 in NNE 0.1 mph 3 mph 70.2% 0.00 in 104 W/m2
16:44 62.2 °F 52.5 °F 30.21 in NNE 0.1 mph 3 mph 70.3% 0.00 in 102 W/m2
16:49 62.2 °F 52.5 °F 30.21 in Calm   3 mph 70.5% 0.00 in 100 W/m2
16:54 62.2 °F 52.7 °F 30.21 in Calm   3 mph 71% 0.00 in 93 W/m2
16:59 62.2 °F 53 °F 30.21 in NNE 0.1 mph 3 mph 71.9% 0.00 in 86 W/m2
17:04 62.1 °F 52.8 °F 30.21 in NNE 0.3 mph 4 mph 71.5% 0.00 in 77 W/m2
17:09 61.9 °F 52.4 °F 30.20 in NNE 0.5 mph 4 mph 71% 0.00 in 72 W/m2
17:14 61.7 °F 52.4 °F 30.20 in Calm   4 mph 71.4% 0.00 in 69 W/m2
17:19 61.6 °F 52.5 °F 30.20 in NNE 0.3 mph 4 mph 72% 0.00 in 65 W/m2
17:24 61.4 °F 52.6 °F 30.20 in Calm   4 mph 72.6% 0.00 in 56 W/m2
17:29 61.3 °F 52.6 °F 30.19 in NNE 0.1 mph 4 mph 73% 0.00 in 53 W/m2
17:34 61.2 °F 52.5 °F 30.19 in NNE 0.1 mph 4 mph 73.1% 0.00 in 47 W/m2
17:39 61 °F 52.7 °F 30.19 in North 0.8 mph 4 mph 74% 0.00 in 44 W/m2
17:44 60.8 °F 52.5 °F 30.19 in Calm   4 mph 74% 0.00 in 40 W/m2
17:49 60.7 °F 52.3 °F 30.19 in Calm   4 mph 74% 0.00 in 35 W/m2
17:54 60.5 °F 52.2 °F 30.19 in Calm   4 mph 74% 0.00 in 32 W/m2
17:59 60.4 °F 52.1 °F 30.19 in North 0.1 mph 4 mph 74% 0.00 in 26 W/m2
18:04 60.3 °F 52 °F 30.19 in Calm   4 mph 74% 0.00 in 21 W/m2
18:09 60.1 °F 51.8 °F 30.19 in North 0.3 mph 3 mph 74% 0.00 in 16 W/m2
18:14 59.9 °F 51.9 °F 30.19 in Calm   3 mph 74.7% 0.00 in 12 W/m2
18:19 59.8 °F 51.9 °F 30.18 in Calm   3 mph 75% 0.00 in 9 W/m2
18:24 59.6 °F 51.9 °F 30.18 in Calm   3 mph 75.5% 0.00 in 5 W/m2
18:29 59.5 °F 52 °F 30.18 in Calm   3 mph 76% 0.00 in 0 W/m2
18:34 59.3 °F 51.8 °F 30.19 in Calm   3 mph 76% 0.00 in 0 W/m2
18:39 59.1 °F 51.9 °F 30.19 in Calm     76.9% 0.00 in 0 W/m2
18:44 59 °F 51.8 °F 30.19 in Calm     77% 0.00 in 0 W/m2
18:49 58.8 °F 51.6 °F 30.19 in Calm     77% 0.00 in 0 W/m2
18:54 58.7 °F 51.5 °F 30.19 in Calm     77% 0.00 in 0 W/m2
18:59 58.5 °F 51.7 °F 30.19 in Calm     77.9% 0.00 in 0 W/m2
19:04 58.4 °F 51.6 °F 30.19 in Calm     78% 0.00 in 0 W/m2
19:09 58.3 °F 51.6 °F 30.19 in Calm     78.3% 0.00 in 0 W/m2
19:14 58.1 °F 51.7 °F 30.19 in Calm     79% 0.00 in 0 W/m2
19:19 58 °F 51.5 °F 30.19 in Calm     79% 0.00 in 0 W/m2
19:24 57.8 °F 51.3 °F 30.18 in Calm     79% 0.00 in 0 W/m2
19:29 57.7 °F 51.2 °F 30.19 in Calm     79% 0.00 in 0 W/m2
19:34 57.5 °F 51.1 °F 30.18 in Calm     79.2% 0.00 in 0 W/m2
19:39 57.3 °F 51.2 °F 30.18 in Calm     80% 0.00 in 0 W/m2
19:44 57.2 °F 51.1 °F 30.18 in Calm     80% 0.00 in 0 W/m2
19:49 57 °F 50.9 °F 30.18 in Calm     80% 0.00 in 0 W/m2
19:54 56.8 °F 50.7 °F 30.18 in Calm     80% 0.00 in 0 W/m2
19:59 56.7 °F 50.6 °F 30.18 in Calm     80.2% 0.00 in 0 W/m2
20:00 56.6 °F 50.8 °F 30.18 in Calm     81% 0.00 in 0 W/m2
20:09 56.3 °F 50.6 °F 30.18 in Calm     81% 0.00 in 0 W/m2
20:14 56.2 °F 50.5 °F 30.18 in Calm     81.2% 0.00 in 0 W/m2
20:49 55.2 °F 50.5 °F 30.19 in Calm     84% 0.00 in 0 W/m2
20:54 55.1 °F 50.4 °F 30.19 in Calm     84% 0.00 in 0 W/m2
20:59 55 °F 50.4 °F 30.19 in Calm     84.4% 0.00 in 0 W/m2
21:04 54.9 °F 50.5 °F 30.19 in Calm     85% 0.00 in 0 W/m2
21:09 54.8 °F 50.4 °F 30.19 in Calm     85% 0.00 in 0 W/m2
21:14 54.7 °F 50.6 °F 30.18 in Calm     86% 0.00 in 0 W/m2
21:19 54.5 °F 50.4 °F 30.18 in Calm     86% 0.00 in 0 W/m2
21:24 54.4 °F 50.3 °F 30.18 in Calm     86% 0.00 in 0 W/m2
21:29 54.3 °F 50.2 °F 30.18 in Calm     86% 0.00 in 0 W/m2
21:34 54.2 °F 50.2 °F 30.18 in Calm     86% 0.00 in 0 W/m2
21:39 54.2 °F 50.3 °F 30.18 in Calm     86.6% 0.00 in 0 W/m2
21:44 54.1 °F 50.3 °F 30.18 in Calm     87% 0.00 in 0 W/m2
21:49 54.1 °F 50.3 °F 30.18 in Calm     87% 0.00 in 0 W/m2
21:54 54 °F 50.2 °F 30.18 in Calm     87% 0.00 in 0 W/m2
21:59 54 °F 50.2 °F 30.18 in Calm     87% 0.00 in 0 W/m2
22:04 53.9 °F 50.1 °F 30.18 in Calm     87% 0.00 in 0 W/m2
22:09 53.9 °F 50.1 °F 30.17 in Calm     87% 0.00 in 0 W/m2
22:14 53.9 °F 50.1 °F 30.17 in Calm     87% 0.00 in 0 W/m2
22:19 53.9 °F 50.1 °F 30.17 in Calm     87% 0.00 in 0 W/m2
22:24 53.8 °F 50.2 °F 30.18 in Calm     87.3% 0.00 in 0 W/m2
22:29 53.8 °F 50.3 °F 30.18 in Calm     88% 0.00 in 0 W/m2
22:34 53.7 °F 50.3 °F 30.17 in Calm     88% 0.00 in 0 W/m2
22:39 53.7 °F 50.2 °F 30.18 in Calm     88% 0.00 in 0 W/m2
22:44 53.7 °F 50.2 °F 30.17 in Calm     88% 0.00 in 0 W/m2
22:49 53.7 °F 50.2 °F 30.17 in Calm     88% 0.00 in 0 W/m2
22:54 53.6 °F 50.2 °F 30.17 in Calm     88% 0.00 in 0 W/m2
22:59 53.6 °F 50.1 °F 30.17 in Calm     88% 0.00 in 0 W/m2
23:04 53.6 °F 50.1 °F 30.17 in Calm     88% 0.00 in 0 W/m2
23:09 53.6 °F 50.1 °F 30.16 in Calm     88% 0.00 in 0 W/m2
23:14 53.5 °F 50.1 °F 30.16 in Calm     88% 0.00 in 0 W/m2
23:19 53.5 °F 50 °F 30.16 in Calm     88% 0.00 in 0 W/m2
23:24 53.5 °F 50 °F 30.16 in Calm     88% 0.00 in 0 W/m2
23:29 53.5 °F 50 °F 30.16 in Calm     88% 0.00 in 0 W/m2
23:34 53.5 °F 50 °F 30.16 in Calm     88% 0.00 in 0 W/m2
23:39 53.5 °F 50 °F 30.16 in Calm     88% 0.00 in 0 W/m2
23:44 53.5 °F 50 °F 30.16 in Calm     88% 0.00 in 0 W/m2
23:49 53.5 °F 50 °F 30.16 in Calm     88% 0.00 in 0 W/m2
23:53 53.5 °F 50 °F 30.16 in Calm     88% 0.00 in 0 W/m2
Hartford County Weather
Compliments of Weather Underground - 4 mb